Time;durP1;ratioP1;P1;durP2;ratioP2;P2;SDS_P1;SDS_P2;PMS_P1;PMS_P2;Temp;Humidity;BMP_temperature;BMP_pressure;BME280_temperature;BME280_humidity;BME280_pressure;Samples;Min_cycle;Max_cycle;Signal;HPM_P1;HPM_P2
2024/04/06 00:00:21;;;;;;;11.50;2.20;;;11.20;89.70;;;;;;5049223;28;20045;-58
2024/04/06 00:02:47;;;;;;;13.65;2.08;;;10.70;90.20;;;;;;5034427;28;20087;-57
2024/04/06 00:05:13;;;;;;;10.57;2.08;;;10.70;89.40;;;;;;5050718;28;20048;-60
2024/04/06 00:07:39;;;;;;;11.88;1.90;;;10.70;90.50;;;;;;5033917;28;20499;-57
2024/04/06 00:10:05;;;;;;;7.53;1.92;;;10.60;90.10;;;;;;5049514;28;20120;-61
2024/04/06 00:12:31;;;;;;;8.10;1.95;;;10.60;90.50;;;;;;5051223;28;20037;-57
2024/04/06 00:14:56;;;;;;;9.30;1.90;;;10.60;90.60;;;;;;5050050;28;20489;-58
2024/04/06 00:17:22;;;;;;;13.30;2.50;;;10.50;90.70;;;;;;5051501;28;20048;-57
2024/04/06 00:19:47;;;;;;;9.05;1.80;;;10.60;90.90;;;;;;5043450;28;20045;-60
2024/04/06 00:22:13;;;;;;;10.40;2.17;;;10.80;90.80;;;;;;5050958;28;20041;-57
2024/04/06 00:24:39;;;;;;;7.82;1.90;;;10.50;91.00;;;;;;5049767;28;20049;-57
2024/04/06 00:27:04;;;;;;;9.77;2.08;;;10.50;90.90;;;;;;5049389;28;20072;-57
2024/04/06 00:29:30;;;;;;;9.55;1.98;;;10.60;91.30;;;;;;5049122;28;20373;-56
2024/04/06 00:31:55;;;;;;;14.35;2.30;;;10.50;91.20;;;;;;5049902;28;20124;-58
2024/04/06 00:34:21;;;;;;;10.23;1.65;;;11.00;91.40;;;;;;5033189;28;20392;-57
2024/04/06 00:36:47;;;;;;;17.10;2.13;;;10.80;91.70;;;;;;5049524;28;20094;-57
2024/04/06 00:39:13;;;;;;;12.75;2.17;;;10.60;91.80;;;;;;5049226;28;20167;-58
2024/04/06 00:41:38;;;;;;;12.65;2.17;;;10.80;91.70;;;;;;5050391;28;20479;-57
2024/04/06 00:44:04;;;;;;;12.70;2.15;;;11.10;91.80;;;;;;5049623;28;20139;-56
2024/04/06 00:46:30;;;;;;;14.15;2.45;;;10.70;91.70;;;;;;5050470;28;20048;-57
2024/04/06 00:48:55;;;;;;;9.30;2.10;;;10.80;91.90;;;;;;5050734;28;20045;-58
2024/04/06 00:51:21;;;;;;;8.23;1.80;;;10.70;91.90;;;;;;5049103;28;20041;-57
2024/04/06 00:53:46;;;;;;;13.50;2.03;;;10.90;91.70;;;;;;5049174;28;20133;-58
2024/04/06 00:56:13;;;;;;;8.50;1.98;;;10.80;91.60;;;;;;5048769;28;20033;-57
2024/04/06 00:58:40;;;;;;;9.43;2.22;;;10.80;91.50;;;;;;5048763;28;20060;-58
2024/04/06 01:01:05;;;;;;;13.65;2.75;;;10.80;91.50;;;;;;5054910;28;20052;-56
2024/04/06 01:03:31;;;;;;;11.82;2.42;;;11.20;91.70;;;;;;5049300;28;20068;-57
2024/04/06 01:05:57;;;;;;;8.95;2.08;;;10.70;91.50;;;;;;5048857;28;20033;-56
2024/04/06 01:08:23;;;;;;;11.18;2.60;;;10.70;91.60;;;;;;5050990;28;20041;-58
2024/04/06 01:10:48;;;;;;;7.85;2.45;;;10.60;91.90;;;;;;5049733;28;20076;-57
2024/04/06 01:13:14;;;;;;;10.45;2.22;;;10.60;91.90;;;;;;5050467;28;20328;-57
2024/04/06 01:15:39;;;;;;;11.60;2.40;;;10.60;92.00;;;;;;5049160;28;20056;-59
2024/04/06 01:18:05;;;;;;;8.45;2.30;;;10.50;92.20;;;;;;5050831;28;20037;-57
2024/04/06 01:20:32;;;;;;;13.65;2.58;;;10.50;92.30;;;;;;5048451;28;20073;-57
2024/04/06 01:22:58;;;;;;;9.27;2.60;;;10.50;92.40;;;;;;5048951;28;20047;-56
2024/04/06 01:25:23;;;;;;;9.32;2.45;;;10.40;92.60;;;;;;5054795;28;20479;-57
2024/04/06 01:27:49;;;;;;;11.00;2.47;;;10.40;92.70;;;;;;5049140;28;20584;-56
2024/04/06 01:30:15;;;;;;;8.40;2.80;;;10.60;92.80;;;;;;5048793;28;20045;-57
2024/04/06 01:32:52;;;;;;;10.80;2.40;;;10.40;92.80;;;;;;5050145;28;20085;-61
2024/04/06 01:35:18;;;;;;;13.07;2.88;;;10.40;93.20;;;;;;5050018;28;20394;-56
2024/04/06 01:37:46;;;;;;;12.23;2.88;;;10.40;93.70;;;;;;5049185;28;20056;-58
2024/04/06 01:40:12;;;;;;;13.63;3.15;;;10.60;93.90;;;;;;5035551;28;20036;-57
2024/04/06 01:42:38;;;;;;;12.40;2.80;;;10.40;94.10;;;;;;5048854;28;20056;-57
2024/04/06 01:45:05;;;;;;;10.48;3.17;;;10.40;94.50;;;;;;5048765;28;20086;-58
2024/04/06 01:47:30;;;;;;;15.30;3.20;;;10.40;94.50;;;;;;5049235;28;20044;-59
2024/04/06 01:50:00;;;;;;;13.70;3.10;;;10.40;94.50;;;;;;5031735;28;20094;-57
2024/04/06 01:52:26;;;;;;;11.25;3.20;;;10.50;94.60;;;;;;5048589;28;20124;-57
2024/04/06 01:54:51;;;;;;;10.77;3.00;;;10.30;94.50;;;;;;5050482;28;20129;-57
2024/04/06 01:57:17;;;;;;;13.55;3.38;;;10.40;94.50;;;;;;5047529;28;20053;-58
2024/04/06 01:59:45;;;;;;;10.10;2.85;;;10.50;95.10;;;;;;5048991;28;20128;-59
2024/04/06 02:02:11;;;;;;;15.20;3.30;;;10.40;95.00;;;;;;5048468;28;20041;-57
2024/04/06 02:04:37;;;;;;;10.38;3.00;;;10.40;95.30;;;;;;5048633;28;20052;-56
2024/04/06 02:07:04;;;;;;;11.90;3.15;;;10.40;95.10;;;;;;5050175;28;20048;-56
2024/04/06 02:09:30;;;;;;;13.25;3.22;;;10.50;94.90;;;;;;5049656;28;20093;-57
2024/04/06 02:11:55;;;;;;;11.40;3.25;;;10.50;95.30;;;;;;5051031;28;20467;-57
2024/04/06 02:14:21;;;;;;;15.20;3.95;;;10.50;95.60;;;;;;5049606;28;20036;-56
2024/04/06 02:16:47;;;;;;;15.13;3.25;;;10.60;95.60;;;;;;5048312;28;20439;-58
2024/04/06 02:19:12;;;;;;;13.65;3.17;;;11.10;95.90;;;;;;5048165;28;20408;-57
2024/04/06 02:21:38;;;;;;;13.38;3.22;;;10.60;95.90;;;;;;5031614;28;20146;-56
2024/04/06 02:24:04;;;;;;;12.13;3.40;;;10.60;95.80;;;;;;5048286;28;20056;-58
2024/04/06 02:26:29;;;;;;;11.00;3.30;;;10.60;95.50;;;;;;5039019;28;20051;-58
2024/04/06 02:28:55;;;;;;;14.13;3.28;;;11.10;95.70;;;;;;5040835;28;20576;-57
2024/04/06 02:31:22;;;;;;;15.88;3.78;;;11.10;95.60;;;;;;5034904;28;20048;-58
2024/04/06 02:33:48;;;;;;;12.50;3.35;;;10.70;96.10;;;;;;5047568;28;20048;-57
2024/04/06 02:36:14;;;;;;;16.23;3.60;;;10.70;96.10;;;;;;5036762;28;20037;-57
2024/04/06 02:38:42;;;;;;;9.40;3.30;;;10.70;95.80;;;;;;5047820;28;20052;-60
2024/04/06 02:41:09;;;;;;;12.35;2.70;;;10.80;95.90;;;;;;5047413;28;20053;-59
2024/04/06 02:43:34;;;;;;;12.27;3.40;;;10.80;95.70;;;;;;5048821;28;20334;-56
2024/04/06 02:46:00;;;;;;;11.10;3.45;;;10.80;96.30;;;;;;5052584;28;20792;-57
2024/04/06 02:48:25;;;;;;;11.88;3.13;;;10.90;95.80;;;;;;5052032;28;20087;-58
2024/04/06 02:50:56;;;;;;;12.90;3.63;;;10.90;95.80;;;;;;5051826;28;20049;-56
2024/04/06 02:53:22;;;;;;;11.65;3.50;;;10.90;95.70;;;;;;5052883;28;20496;-57
2024/04/06 02:55:48;;;;;;;10.13;3.03;;;10.90;95.40;;;;;;5050618;28;20087;-57
2024/04/06 02:58:13;;;;;;;10.52;3.30;;;10.90;95.80;;;;;;5051220;28;20045;-57
2024/04/06 03:00:39;;;;;;;14.63;2.88;;;11.20;95.30;;;;;;5052966;28;20088;-57
2024/04/06 03:03:04;;;;;;;10.60;3.22;;;11.00;95.50;;;;;;5051483;28;20417;-57
2024/04/06 03:05:30;;;;;;;10.73;3.40;;;11.00;96.30;;;;;;5051625;28;20053;-57
2024/04/06 03:07:56;;;;;;;11.77;3.30;;;11.10;95.50;;;;;;5051443;28;20049;-56
2024/04/06 03:10:22;;;;;;;12.07;3.40;;;11.10;95.40;;;;;;5050790;28;20396;-57
2024/04/06 03:12:48;;;;;;;15.68;3.30;;;11.00;95.60;;;;;;5052106;28;20040;-57
2024/04/06 03:15:14;;;;;;;6.95;2.80;;;11.00;95.40;;;;;;5051786;28;20045;-57
2024/04/06 03:17:39;;;;;;;14.15;3.30;;;10.90;95.60;;;;;;5052471;28;20240;-58
2024/04/06 03:20:07;;;;;;;14.20;3.60;;;10.90;95.60;;;;;;5034547;28;20049;-57
2024/04/06 03:22:33;;;;;;;13.50;3.28;;;10.80;95.60;;;;;;5051608;28;20037;-56
2024/04/06 03:24:59;;;;;;;14.30;2.90;;;10.70;96.10;;;;;;5060088;28;20194;-57
2024/04/06 03:27:24;;;;;;;10.70;3.10;;;10.70;96.80;;;;;;5051331;28;20063;-56
2024/04/06 03:29:51;;;;;;;12.13;3.10;;;11.00;97.10;;;;;;5052300;28;20037;-56
2024/04/06 03:32:17;;;;;;;11.68;3.25;;;10.70;96.90;;;;;;5050961;28;20366;-57
2024/04/06 03:34:42;;;;;;;8.27;2.78;;;11.10;97.80;;;;;;5052038;28;20538;-56
2024/04/06 03:37:08;;;;;;;12.85;3.30;;;10.70;96.60;;;;;;5051165;28;20048;-56
2024/04/06 03:39:33;;;;;;;15.50;4.30;;;10.70;96.70;;;;;;5051152;28;20132;-58
2024/04/06 03:41:59;;;;;;;15.38;3.40;;;10.90;98.20;;;;;;5050426;28;20045;-57
2024/04/06 03:44:25;;;;;;;14.43;3.63;;;10.70;96.90;;;;;;5050423;28;20060;-58
2024/04/06 03:46:51;;;;;;;13.55;3.40;;;10.70;97.00;;;;;;5054260;28;20098;-58
2024/04/06 03:49:17;;;;;;;10.60;3.38;;;10.70;96.80;;;;;;5052175;28;20443;-57
2024/04/06 03:51:42;;;;;;;10.55;3.20;;;10.60;96.90;;;;;;5050767;28;20047;-59
2024/04/06 03:54:08;;;;;;;12.60;3.90;;;10.90;96.90;;;;;;5052426;28;20090;-57
2024/04/06 03:56:34;;;;;;;11.40;3.35;;;12.00;98.80;;;;;;5050501;28;20045;-58
2024/04/06 03:59:00;;;;;;;10.38;3.47;;;10.50;97.60;;;;;;5050358;28;20488;-57
2024/04/06 04:01:25;;;;;;;15.75;3.60;;;10.50;97.90;;;;;;5051973;28;20045;-59
2024/04/06 04:03:51;;;;;;;11.02;3.65;;;10.60;98.40;;;;;;5033901;28;20165;-56
2024/04/06 04:06:17;;;;;;;13.63;3.65;;;10.60;98.80;;;;;;5049950;28;20044;-57
2024/04/06 04:08:43;;;;;;;12.68;3.67;;;10.60;98.90;;;;;;5050619;28;20045;-57
2024/04/06 04:11:10;;;;;;;10.23;3.88;;;10.60;99.00;;;;;;5049874;28;20129;-57
2024/04/06 04:13:35;;;;;;;11.38;3.47;;;10.70;98.70;;;;;;5050081;28;20538;-56
2024/04/06 04:16:01;;;;;;;15.25;3.85;;;11.00;98.60;;;;;;5049743;28;20041;-57
2024/04/06 04:18:26;;;;;;;12.82;3.85;;;10.80;99.00;;;;;;5050102;28;20045;-58
2024/04/06 04:20:52;;;;;;;11.07;3.92;;;11.50;99.10;;;;;;5051622;28;20131;-58
2024/04/06 04:23:18;;;;;;;12.90;4.40;;;10.90;99.10;;;;;;5050043;28;20040;-57
2024/04/06 04:25:43;;;;;;;10.60;4.00;;;10.90;99.30;;;;;;5050636;28;20099;-56
2024/04/06 04:28:09;;;;;;;13.60;4.78;;;11.00;98.90;;;;;;5033554;28;20049;-57
2024/04/06 04:30:35;;;;;;;17.33;5.65;;;11.20;99.00;;;;;;5049951;28;20045;-57
2024/04/06 04:33:01;;;;;;;15.23;5.50;;;11.10;98.60;;;;;;5050183;28;20136;-57
2024/04/06 04:35:26;;;;;;;12.90;5.30;;;11.10;99.30;;;;;;5049607;28;20045;-56
2024/04/06 04:37:52;;;;;;;12.68;4.93;;;11.30;98.90;;;;;;5051005;28;20124;-57
2024/04/06 04:40:18;;;;;;;13.93;5.55;;;11.20;98.80;;;;;;5032437;28;20507;-57
2024/04/06 04:42:43;;;;;;;14.68;6.05;;;11.20;99.70;;;;;;5051259;28;20051;-57
2024/04/06 04:45:10;;;;;;;16.10;6.25;;;11.90;99.60;;;;;;5049353;28;20481;-57
2024/04/06 04:47:35;;;;;;;20.42;6.75;;;11.30;99.90;;;;;;5049320;28;20398;-57
2024/04/06 04:50:05;;;;;;;16.45;6.30;;;11.40;99.90;;;;;;5049319;28;20052;-57
2024/04/06 04:52:31;;;;;;;13.20;7.22;;;11.60;99.90;;;;;;5049128;28;20064;-57
2024/04/06 04:54:57;;;;;;;18.02;7.03;;;11.50;99.90;;;;;;5048893;28;20071;-57
2024/04/06 04:57:22;;;;;;;13.75;7.25;;;11.50;99.90;;;;;;5048531;28;20060;-58
2024/04/06 04:59:48;;;;;;;17.05;7.93;;;11.50;99.90;;;;;;5047774;28;20055;-60
2024/04/06 05:02:15;;;;;;;16.40;7.57;;;11.90;99.90;;;;;;5050340;28;20055;-65
2024/04/06 05:04:53;;;;;;;20.10;7.35;;;12.50;99.90;;;;;;5049367;28;20385;-64
2024/04/06 05:07:19;;;;;;;16.48;7.72;;;11.70;99.90;;;;;;5032205;28;20501;-64
2024/04/06 05:09:46;;;;;;;15.32;7.13;;;11.70;99.90;;;;;;5049121;28;20047;-64
2024/04/06 05:12:13;;;;;;;16.92;7.20;;;12.00;99.90;;;;;;5048924;28;20098;-64
2024/04/06 05:14:38;;;;;;;15.00;6.88;;;12.30;99.90;;;;;;5049011;28;20041;-65
2024/04/06 05:17:04;;;;;;;17.10;7.00;;;11.90;99.90;;;;;;5049848;28;20037;-64
2024/04/06 05:19:29;;;;;;;13.13;7.53;;;11.90;99.90;;;;;;5049225;28;20055;-64
2024/04/06 05:21:55;;;;;;;12.23;6.85;;;12.40;99.90;;;;;;5048915;28;20064;-63
2024/04/06 05:24:20;;;;;;;18.85;7.65;;;12.00;99.90;;;;;;5049350;28;20374;-64
2024/04/06 05:26:47;;;;;;;17.55;7.82;;;12.60;99.90;;;;;;5049179;28;20127;-64
2024/04/06 05:29:13;;;;;;;14.32;7.07;;;12.70;99.90;;;;;;5048676;28;20045;-64
2024/04/06 05:31:41;;;;;;;14.23;7.22;;;12.50;99.90;;;;;;5048773;28;20052;-65
2024/04/06 05:34:06;;;;;;;12.95;7.20;;;12.20;99.90;;;;;;5049089;28;20386;-63
2024/04/06 05:36:32;;;;;;;16.88;7.15;;;12.30;99.90;;;;;;5050185;28;20051;-63
2024/04/06 05:38:59;;;;;;;14.05;6.72;;;12.40;99.90;;;;;;5031974;28;20053;-63
2024/04/06 05:41:25;;;;;;;13.13;6.80;;;12.50;99.90;;;;;;5031629;28;20435;-63
2024/04/06 05:43:53;;;;;;;13.93;7.40;;;12.50;99.90;;;;;;5048763;28;20114;-63
2024/04/06 05:46:19;;;;;;;13.48;6.80;;;12.80;99.90;;;;;;5049696;28;20037;-64
2024/04/06 05:48:44;;;;;;;17.33;7.68;;;12.50;99.90;;;;;;5032398;28;20457;-63
2024/04/06 05:51:10;;;;;;;12.15;6.63;;;12.60;99.90;;;;;;5048327;28;20294;-64
2024/04/06 05:53:35;;;;;;;10.77;6.45;;;12.80;99.90;;;;;;5048825;28;20036;-64
2024/04/06 05:56:01;;;;;;;10.73;5.97;;;12.60;99.90;;;;;;5047608;28;20046;-64
2024/04/06 05:58:27;;;;;;;12.15;6.38;;;12.60;99.90;;;;;;5048648;28;20088;-64
2024/04/06 06:00:52;;;;;;;10.38;6.07;;;12.70;99.90;;;;;;5048549;28;20041;-64
2024/04/06 06:03:18;;;;;;;9.82;5.75;;;12.70;99.90;;;;;;5048657;28;20080;-63
2024/04/06 06:05:43;;;;;;;12.07;6.28;;;12.70;99.90;;;;;;5048630;28;20052;-65
2024/04/06 06:08:09;;;;;;;13.90;5.88;;;12.80;99.90;;;;;;5049421;28;20074;-63
2024/04/06 06:10:34;;;;;;;11.05;5.85;;;12.80;99.90;;;;;;5048089;28;20041;-63
2024/04/06 06:13:00;;;;;;;10.02;5.97;;;12.90;99.90;;;;;;5048518;28;20048;-63
2024/04/06 06:15:26;;;;;;;10.48;6.25;;;13.00;99.90;;;;;;5048254;28;20118;-63
2024/04/06 06:17:51;;;;;;;11.52;5.75;;;13.00;99.90;;;;;;5049696;28;20045;-63
2024/04/06 06:20:19;;;;;;;10.68;5.55;;;13.40;99.90;;;;;;5051940;28;20041;-64
2024/04/06 06:22:44;;;;;;;11.05;5.70;;;13.20;99.90;;;;;;5054231;28;20048;-63
2024/04/06 06:25:10;;;;;;;12.65;5.82;;;13.70;99.90;;;;;;5051775;28;20506;-65
2024/04/06 06:27:35;;;;;;;8.45;5.60;;;14.50;99.90;;;;;;5035406;28;20545;-63
2024/04/06 06:30:02;;;;;;;14.65;5.05;;;15.40;99.90;;;;;;5051275;28;20040;-64
2024/04/06 06:32:27;;;;;;;8.18;4.85;;;16.00;99.90;;;;;;5053995;28;20045;-63
2024/04/06 06:34:53;;;;;;;7.15;3.85;;;16.20;94.90;;;;;;5052217;28;20095;-63
2024/04/06 06:37:19;;;;;;;7.47;4.20;;;16.30;92.20;;;;;;5051589;28;20400;-62
2024/04/06 06:39:45;;;;;;;7.55;3.70;;;16.00;89.70;;;;;;5053544;28;20045;-64
2024/04/06 06:42:11;;;;;;;9.07;4.05;;;15.60;91.50;;;;;;5051565;28;20345;-63
2024/04/06 06:44:38;;;;;;;6.85;3.30;;;15.70;91.80;;;;;;5051616;28;20052;-63
2024/04/06 06:47:05;;;;;;;8.80;3.65;;;15.00;92.60;;;;;;5052377;28;20057;-63
2024/04/06 06:49:31;;;;;;;8.75;3.45;;;14.90;93.50;;;;;;5034920;28;20045;-63
2024/04/06 06:51:57;;;;;;;8.35;3.72;;;14.80;95.00;;;;;;5025376;28;20052;-63
2024/04/06 06:54:23;;;;;;;8.23;3.60;;;14.90;96.70;;;;;;5044980;28;20045;-63
2024/04/06 06:56:48;;;;;;;7.82;3.63;;;14.80;97.70;;;;;;5048159;28;20056;-62
2024/04/06 06:59:14;;;;;;;10.15;4.18;;;15.80;98.60;;;;;;5048020;28;20081;-66
2024/04/06 07:01:39;;;;;;;10.00;3.55;;;16.00;99.50;;;;;;5043112;28;20045;-64
2024/04/06 07:04:05;;;;;;;6.35;3.17;;;16.20;91.90;;;;;;5031843;28;20539;-63
2024/04/06 07:06:31;;;;;;;6.75;3.25;;;16.70;89.70;;;;;;5034451;28;20041;-63
2024/04/06 07:08:57;;;;;;;8.05;3.15;;;17.10;86.60;;;;;;5043051;28;20072;-63
2024/04/06 07:11:23;;;;;;;6.93;3.10;;;16.90;81.00;;;;;;5034326;28;20049;-63
2024/04/06 07:13:48;;;;;;;4.65;2.65;;;17.30;84.20;;;;;;5048672;28;20500;-63
2024/04/06 07:16:15;;;;;;;6.07;2.63;;;17.40;80.20;;;;;;5046304;28;20070;-62
2024/04/06 07:18:41;;;;;;;6.80;2.60;;;17.20;75.30;;;;;;5028533;28;20141;-63
2024/04/06 07:21:08;;;;;;;5.68;2.65;;;17.10;80.10;;;;;;5042515;28;20127;-63
2024/04/06 07:23:34;;;;;;;4.50;2.40;;;16.80;77.20;;;;;;5049198;28;20044;-63
2024/04/06 07:26:00;;;;;;;3.60;2.10;;;16.60;78.00;;;;;;5049216;28;20127;-64
2024/04/06 07:28:25;;;;;;;8.23;2.45;;;17.00;82.60;;;;;;5049783;28;20056;-64
2024/04/06 07:30:51;;;;;;;6.43;2.10;;;18.10;78.50;;;;;;5050616;28;20627;-64
2024/04/06 07:33:17;;;;;;;4.60;2.00;;;19.50;63.30;;;;;;5048413;28;20040;-62
2024/04/06 07:35:45;;;;;;;4.20;2.10;;;20.50;58.80;;;;;;5051145;28;20080;-63
2024/04/06 07:38:11;;;;;;;5.47;2.22;;;21.50;45.50;;;;;;5050777;28;20072;-64
2024/04/06 07:40:37;;;;;;;4.25;2.17;;;22.50;27.10;;;;;;5050531;28;20512;-64
2024/04/06 07:43:02;;;;;;;4.63;2.10;;;22.80;99.90;;;;;;5051060;28;20056;-65
2024/04/06 07:45:29;;;;;;;5.38;1.92;;;23.60;99.90;;;;;;5050262;28;20052;-62
2024/04/06 07:47:55;;;;;;;4.60;1.83;;;24.50;99.90;;;;;;5046365;28;20045;-61
2024/04/06 07:50:21;;;;;;;3.90;1.70;;;24.70;1.00;;;;;;5031219;28;20489;-62
2024/04/06 07:52:46;;;;;;;3.38;1.73;;;25.20;99.90;;;;;;5032810;28;20377;-62
2024/04/06 07:55:12;;;;;;;3.97;1.70;;;25.80;99.90;;;;;;5030448;28;20048;-62
2024/04/06 07:57:38;;;;;;;4.75;1.65;;;26.20;1.00;;;;;;5047912;28;20461;-62
2024/04/06 08:00:04;;;;;;;3.10;1.70;;;26.90;99.90;;;;;;5043177;28;20179;-62
2024/04/06 08:02:30;;;;;;;7.15;1.83;;;26.30;99.90;;;;;;5045860;28;20052;-61
2024/04/06 08:04:56;;;;;;;3.05;1.70;;;26.60;99.90;;;;;;5052139;28;20041;-62
2024/04/06 08:07:23;;;;;;;4.60;1.83;;;26.30;99.90;;;;;;5045044;28;20102;-62
2024/04/06 08:09:48;;;;;;;2.90;1.55;;;26.30;99.90;;;;;;5044767;28;20051;-62
2024/04/06 08:12:14;;;;;;;4.60;1.70;;;26.70;99.90;;;;;;5038468;28;20048;-62
2024/04/06 08:14:40;;;;;;;5.30;1.60;;;27.20;1.00;;;;;;5050640;28;20095;-61
2024/04/06 08:17:05;;;;;;;3.58;1.70;;;27.50;1.00;;;;;;5050239;28;20045;-62
2024/04/06 08:19:31;;;;;;;4.07;1.40;;;27.80;1.00;;;;;;5033111;28;20128;-61
2024/04/06 08:21:57;;;;;;;4.00;1.50;;;27.50;1.00;;;;;;5046395;28;20389;-62
2024/04/06 08:24:23;;;;;;;3.67;1.58;;;27.00;99.90;;;;;;5039861;28;20128;-61
2024/04/06 08:26:49;;;;;;;3.13;1.30;;;26.00;99.90;;;;;;5045369;28;20128;-61
2024/04/06 08:29:15;;;;;;;5.43;1.60;;;25.10;4.00;;;;;;5050746;28;20060;-61
2024/04/06 08:31:40;;;;;;;4.22;1.70;;;24.20;1.00;;;;;;5049166;28;20045;-61
2024/04/06 08:34:07;;;;;;;5.88;1.65;;;23.70;99.90;;;;;;5033591;28;20049;-62
2024/04/06 08:36:33;;;;;;;4.10;1.38;;;23.30;99.90;;;;;;5041020;28;20473;-61
2024/04/06 08:38:59;;;;;;;4.93;1.50;;;23.80;99.90;;;;;;5047262;28;20049;-61
2024/04/06 08:41:26;;;;;;;5.18;1.50;;;24.50;1.00;;;;;;5047837;28;20044;-63
2024/04/06 08:43:55;;;;;;;4.43;1.60;;;25.70;1.00;;;;;;5023820;28;20057;-62
2024/04/06 08:46:24;;;;;;;2.97;1.40;;;26.60;41.40;;;;;;5022700;28;20042;-61
2024/04/06 08:48:50;;;;;;;3.53;1.48;;;27.30;1.00;;;;;;5042199;28;20117;-61
2024/04/06 08:51:17;;;;;;;4.30;1.48;;;27.60;1.00;;;;;;5050685;28;20068;-62
2024/04/06 08:53:43;;;;;;;4.43;1.50;;;28.30;1.00;;;;;;5035937;28;20076;-61
2024/04/06 08:56:09;;;;;;;5.63;1.45;;;27.60;1.00;;;;;;5031074;28;20116;-62
2024/04/06 08:58:35;;;;;;;3.72;1.35;;;28.20;1.00;;;;;;5038652;28;20108;-61
2024/04/06 09:01:02;;;;;;;3.30;1.40;;;28.30;1.00;;;;;;5039555;28;20545;-61
2024/04/06 09:03:28;;;;;;;3.15;1.50;;;28.60;1.00;;;;;;5037181;28;20041;-61
2024/04/06 09:05:54;;;;;;;4.90;1.50;;;29.00;1.00;;;;;;5035236;28;20041;-61
2024/04/06 09:08:20;;;;;;;4.70;1.63;;;28.50;9.50;;;;;;5038951;28;20053;-61
2024/04/06 09:10:46;;;;;;;2.22;1.20;;;28.10;1.00;;;;;;5041170;28;20069;-61
2024/04/06 09:13:13;;;;;;;3.03;1.35;;;27.50;1.00;;;;;;5034559;28;20170;-60
2024/04/06 09:15:39;;;;;;;3.50;1.33;;;28.10;1.00;;;;;;5031401;28;20041;-61
2024/04/06 09:18:04;;;;;;;2.58;1.50;;;28.70;1.00;;;;;;5031294;28;20057;-61
2024/04/06 09:20:30;;;;;;;4.30;1.70;;;28.40;2.60;;;;;;5031700;28;20035;-61
2024/04/06 09:23:23;;;;;;;3.83;1.50;;;27.80;1.00;;;;;;5036469;28;20072;-59
2024/04/06 09:25:59;;;;;;;3.25;1.45;;;27.60;1.00;;;;;;5048818;28;20045;-59
2024/04/06 09:28:26;;;;;;;3.20;1.50;;;27.20;1.00;;;;;;5042559;28;20045;-61
2024/04/06 09:30:56;;;;;;;3.53;1.63;;;27.40;1.00;;;;;;5035163;28;20511;-62
2024/04/06 09:33:23;;;;;;;5.15;1.75;;;27.50;99.90;;;;;;5046729;28;20041;-60
2024/04/06 09:35:50;;;;;;;3.72;1.50;;;27.90;1.00;;;;;;5047685;28;20040;-61
2024/04/06 09:38:15;;;;;;;3.28;1.55;;;27.90;1.00;;;;;;5048110;28;20110;-62
2024/04/06 09:40:44;;;;;;;5.07;1.67;;;27.10;1.00;;;;;;5047895;28;20452;-61
2024/04/06 09:43:09;;;;;;;4.88;1.60;;;27.40;1.00;;;;;;5048149;28;20091;-63
2024/04/06 09:45:36;;;;;;;4.10;1.52;;;27.00;1.00;;;;;;5037421;28;20038;-61
2024/04/06 09:48:02;;;;;;;3.03;1.42;;;27.40;1.00;;;;;;5013970;28;20049;-61
2024/04/06 09:50:30;;;;;;;4.57;1.50;;;27.70;99.90;;;;;;5046188;28;20045;-61
2024/04/06 09:52:56;;;;;;;5.57;1.90;;;27.70;1.00;;;;;;5048902;28;20041;-60
2024/04/06 09:55:24;;;;;;;5.25;1.67;;;27.40;99.90;;;;;;5047707;28;20041;-61
2024/04/06 09:57:50;;;;;;;4.88;1.55;;;27.80;99.90;;;;;;5049539;28;20057;-61
2024/04/06 10:00:16;;;;;;;5.05;1.80;;;27.80;99.90;;;;;;5047711;28;20056;-61
2024/04/06 10:02:43;;;;;;;3.85;1.52;;;28.10;99.90;;;;;;5049251;28;20094;-61
2024/04/06 10:05:10;;;;;;;4.60;1.75;;;28.40;1.00;;;;;;5049646;28;20523;-62
2024/04/06 10:07:36;;;;;;;5.07;1.70;;;27.50;1.00;;;;;;5045261;28;20489;-62
2024/04/06 10:10:03;;;;;;;3.95;1.83;;;26.40;1.00;;;;;;5047648;28;20060;-62
2024/04/06 10:12:48;;;;;;;7.03;1.95;;;26.70;99.90;;;;;;5047542;28;20049;-61
2024/04/06 10:15:21;;;;;;;5.10;1.80;;;26.50;78.50;;;;;;5043520;28;20041;-61
2024/04/06 10:17:48;;;;;;;4.15;1.63;;;26.70;1.00;;;;;;5040937;28;20037;-61
2024/04/06 10:20:20;;;;;;;5.15;1.60;;;27.00;99.90;;;;;;5054428;28;20056;-60
2024/04/06 10:22:51;;;;;;;3.67;1.63;;;27.20;99.90;;;;;;5040425;28;20472;-61
2024/04/06 10:25:18;;;;;;;4.70;1.65;;;26.70;99.90;;;;;;5037243;28;20064;-61
2024/04/06 10:27:44;;;;;;;6.00;1.83;;;26.90;44.50;;;;;;5042888;28;20068;-61
2024/04/06 10:30:10;;;;;;;5.38;1.70;;;26.80;35.30;;;;;;5037883;28;20052;-60
2024/04/06 10:32:36;;;;;;;4.57;1.88;;;26.20;99.90;;;;;;5037086;28;20037;-61
2024/04/06 10:35:03;;;;;;;5.20;1.60;;;25.80;99.90;;;;;;5046757;28;20056;-60
2024/04/06 10:37:29;;;;;;;5.38;1.70;;;25.70;99.90;;;;;;5048335;28;20052;-61
2024/04/06 10:39:56;;;;;;;3.63;1.58;;;25.50;99.90;;;;;;5051390;28;20049;-60
2024/04/06 10:42:25;;;;;;;4.25;1.60;;;25.40;99.90;;;;;;5052554;28;20045;-61
2024/04/06 10:44:52;;;;;;;3.78;1.48;;;24.90;99.90;;;;;;5048105;28;20056;-64
2024/04/06 10:47:17;;;;;;;3.70;1.30;;;24.70;63.10;;;;;;5049091;28;20464;-60
2024/04/06 10:49:50;;;;;;;3.55;1.67;;;24.60;1.00;;;;;;5049600;28;20076;-60
2024/04/06 10:52:19;;;;;;;5.05;1.80;;;24.50;99.90;;;;;;5031524;28;20051;-60
2024/04/06 10:54:46;;;;;;;3.25;1.50;;;24.00;99.90;;;;;;5047621;28;20497;-60
2024/04/06 10:57:11;;;;;;;4.25;1.70;;;23.90;81.10;;;;;;5048118;28;20056;-60
2024/04/06 10:59:37;;;;;;;4.75;1.70;;;23.70;99.90;;;;;;5047690;28;20071;-61
2024/04/06 11:02:06;;;;;;;6.80;1.80;;;23.80;99.90;;;;;;5048247;28;20457;-61
2024/04/06 11:04:37;;;;;;;5.22;1.50;;;23.90;8.80;;;;;;5048104;28;20056;-60
2024/04/06 11:07:03;;;;;;;5.40;1.50;;;24.00;99.90;;;;;;5035622;28;20049;-61
2024/04/06 11:09:30;;;;;;;3.88;1.50;;;24.20;99.20;;;;;;5050586;28;20041;-60
2024/04/06 11:11:56;;;;;;;4.40;1.48;;;24.20;1.00;;;;;;5051151;28;20053;-61
2024/04/06 11:14:25;;;;;;;6.47;1.70;;;24.20;1.00;;;;;;5052487;28;20037;-60
2024/04/06 11:16:52;;;;;;;4.10;1.73;;;24.20;99.90;;;;;;5034686;28;20052;-61
2024/04/06 11:19:18;;;;;;;5.93;1.58;;;24.50;1.00;;;;;;5050302;28;20064;-60
2024/04/06 11:21:44;;;;;;;8.48;1.90;;;24.70;99.90;;;;;;5045968;28;20040;-61
2024/04/06 11:24:10;;;;;;;5.72;1.67;;;24.90;1.00;;;;;;5050498;28;20049;-62
2024/04/06 11:26:36;;;;;;;4.97;1.42;;;24.70;99.90;;;;;;5037590;28;20143;-61
2024/04/06 11:29:02;;;;;;;3.58;1.48;;;24.80;1.00;;;;;;5041152;28;20180;-61
2024/04/06 11:31:28;;;;;;;3.75;1.70;;;24.70;99.90;;;;;;5036259;28;20493;-60
2024/04/06 11:33:56;;;;;;;5.03;1.70;;;24.50;1.00;;;;;;5050984;28;20055;-60
2024/04/06 11:36:22;;;;;;;3.20;1.40;;;24.30;1.00;;;;;;5046917;28;20040;-61
2024/04/06 11:38:47;;;;;;;4.15;1.50;;;24.30;77.10;;;;;;5051416;28;20052;-61
2024/04/06 11:41:13;;;;;;;3.70;1.67;;;24.00;99.90;;;;;;5049423;28;20041;-61
2024/04/06 11:43:38;;;;;;;3.38;1.50;;;24.20;99.90;;;;;;5043218;28;20083;-60
2024/04/06 11:46:04;;;;;;;4.05;1.52;;;24.00;99.90;;;;;;5049761;28;20072;-60
2024/04/06 11:48:30;;;;;;;6.15;1.83;;;23.90;99.90;;;;;;5046601;28;20033;-60
2024/04/06 11:50:58;;;;;;;3.92;1.80;;;23.90;99.90;;;;;;5040023;28;20064;-60
2024/04/06 11:53:23;;;;;;;4.90;1.77;;;23.90;86.60;;;;;;5046591;28;20047;-61
2024/04/06 11:55:49;;;;;;;6.68;1.50;;;23.80;1.00;;;;;;5046549;28;20112;-59
2024/04/06 11:58:15;;;;;;;3.25;1.60;;;24.00;99.20;;;;;;5047907;28;20057;-60
2024/04/06 12:00:41;;;;;;;4.28;1.60;;;23.90;99.90;;;;;;5043516;28;20526;-61
2024/04/06 12:03:07;;;;;;;3.70;1.58;;;23.90;1.00;;;;;;5030946;28;20128;-57
2024/04/06 12:05:32;;;;;;;4.65;1.73;;;23.80;99.90;;;;;;5044944;28;20488;-60
2024/04/06 12:07:58;;;;;;;5.32;1.83;;;23.60;1.00;;;;;;5051296;28;20107;-59
2024/04/06 12:10:24;;;;;;;7.60;1.90;;;23.60;88.40;;;;;;5051623;28;20464;-60
2024/04/06 12:12:49;;;;;;;8.88;1.85;;;23.70;99.90;;;;;;5049398;28;20045;-63
2024/04/06 12:15:15;;;;;;;15.20;2.25;;;23.70;99.90;;;;;;5050177;28;20049;-61
2024/04/06 12:17:41;;;;;;;13.77;2.20;;;23.80;99.90;;;;;;5051281;28;20041;-60
2024/04/06 12:20:08;;;;;;;10.63;2.17;;;23.90;1.00;;;;;;5049579;28;20037;-60
2024/04/06 12:22:33;;;;;;;7.57;1.60;;;24.00;1.00;;;;;;5050967;28;20037;-59
2024/04/06 12:24:59;;;;;;;7.40;2.22;;;24.10;99.90;;;;;;5050223;28;20076;-59
2024/04/06 12:27:25;;;;;;;8.45;1.40;;;24.40;99.90;;;;;;5048476;28;20037;-61
2024/04/06 12:29:50;;;;;;;5.38;1.50;;;24.50;99.90;;;;;;5048353;28;20492;-60
2024/04/06 12:32:17;;;;;;;3.70;1.42;;;24.50;1.00;;;;;;5050464;28;20073;-59
2024/04/06 12:34:42;;;;;;;6.63;1.60;;;24.50;99.90;;;;;;5051252;28;20051;-60
2024/04/06 12:37:13;;;;;;;7.20;1.45;;;24.80;1.00;;;;;;5049908;28;20045;-58